createdAt,value
2018-12-24T00:00:37.922Z,99.20
2018-12-24T00:03:07.392Z,99.20
2018-12-24T00:05:36.903Z,99.30
2018-12-24T00:08:06.345Z,99.40
2018-12-24T00:10:35.809Z,99.40
2018-12-24T00:13:05.341Z,99.50
2018-12-24T00:15:34.780Z,99.50
2018-12-24T00:18:04.234Z,99.50
2018-12-24T00:20:33.701Z,99.50
2018-12-24T00:23:03.181Z,99.50
2018-12-24T00:25:32.610Z,99.60
2018-12-24T00:28:02.070Z,99.60
2018-12-24T00:30:31.578Z,99.60
2018-12-24T00:33:01.019Z,99.60
2018-12-24T00:35:30.496Z,99.60
2018-12-24T00:37:59.936Z,99.70
2018-12-24T00:40:29.402Z,99.70
2018-12-24T00:42:58.870Z,99.70
2018-12-24T00:45:29.941Z,99.60
2018-12-24T00:47:59.394Z,99.60
2018-12-24T00:50:28.837Z,99.60
2018-12-24T00:52:58.316Z,99.60
2018-12-24T00:55:27.848Z,99.70
2018-12-24T00:57:57.285Z,99.70
2018-12-24T01:00:26.931Z,99.90
2018-12-24T01:02:58.166Z,99.70
2018-12-24T01:05:27.697Z,99.70
2018-12-24T01:07:57.212Z,99.80
2018-12-24T01:10:26.770Z,99.80
2018-12-24T01:12:56.240Z,99.70
2018-12-24T01:15:25.687Z,99.70
2018-12-24T01:17:55.154Z,99.80
2018-12-24T01:20:24.590Z,99.90
2018-12-24T01:22:54.055Z,99.80
2018-12-24T01:25:23.578Z,99.80
2018-12-24T01:27:53.041Z,99.80
2018-12-24T01:30:22.506Z,99.90
2018-12-24T01:32:51.944Z,99.80
2018-12-24T01:35:21.383Z,99.80
2018-12-24T01:37:50.860Z,99.80
2018-12-24T01:40:20.318Z,99.80
2018-12-24T01:42:49.772Z,99.80
2018-12-24T01:45:19.266Z,99.80
2018-12-24T01:47:48.705Z,99.80
2018-12-24T01:50:18.144Z,99.70
2018-12-24T01:52:47.599Z,99.70
2018-12-24T01:55:17.143Z,99.70
2018-12-24T01:57:46.593Z,99.70
2018-12-24T02:00:16.031Z,99.70
2018-12-24T02:02:45.482Z,99.70
2018-12-24T02:05:14.939Z,99.70
2018-12-24T02:07:44.388Z,99.70
2018-12-24T02:10:13.845Z,99.70
2018-12-24T02:12:43.284Z,99.80
2018-12-24T02:15:12.738Z,99.80
2018-12-24T02:17:42.234Z,99.90
2018-12-24T02:20:11.667Z,99.90
2018-12-24T02:22:41.096Z,99.90
2018-12-24T02:25:10.530Z,99.90
2018-12-24T02:27:39.935Z,99.90
2018-12-24T02:30:09.440Z,99.90
2018-12-24T02:32:38.913Z,99.90
2018-12-24T02:35:08.372Z,99.90
2018-12-24T02:37:37.923Z,99.90
2018-12-24T02:40:07.346Z,99.90
2018-12-24T02:42:36.784Z,99.90
2018-12-24T02:45:06.351Z,99.90
2018-12-24T02:47:35.809Z,99.90
2018-12-24T02:50:05.466Z,99.90
2018-12-24T02:52:34.908Z,99.90
2018-12-24T02:55:04.448Z,99.90
2018-12-24T02:57:33.901Z,99.90
2018-12-24T03:00:03.434Z,99.90
2018-12-24T03:02:32.927Z,99.90
2018-12-24T03:05:02.393Z,99.90
2018-12-24T03:07:34.258Z,99.90
2018-12-24T03:10:05.061Z,99.90
2018-12-24T03:12:34.534Z,99.90
2018-12-24T03:15:04.829Z,99.90
2018-12-24T03:17:34.263Z,99.90
2018-12-24T03:20:04.235Z,99.90
2018-12-24T03:22:33.684Z,99.90
2018-12-24T03:25:03.124Z,99.90
2018-12-24T03:27:32.616Z,99.90
2018-12-24T03:30:02.041Z,99.90
2018-12-24T03:32:31.484Z,99.90
2018-12-24T03:35:00.979Z,99.90
2018-12-24T03:37:30.428Z,99.90
2018-12-24T03:39:59.856Z,99.90
2018-12-24T03:42:29.304Z,99.90
2018-12-24T03:44:58.891Z,99.90
2018-12-24T03:47:28.467Z,99.90
2018-12-24T03:49:57.927Z,99.90
2018-12-24T03:52:27.455Z,99.90
2018-12-24T03:54:56.903Z,99.90
2018-12-24T03:57:26.455Z,99.90
2018-12-24T03:59:55.958Z,99.90
2018-12-24T04:02:25.414Z,99.80
2018-12-24T04:04:54.911Z,99.90
2018-12-24T04:07:24.568Z,99.80
2018-12-24T04:09:54.132Z,99.80
2018-12-24T04:12:23.677Z,99.80
2018-12-24T04:14:53.258Z,99.80
2018-12-24T04:17:22.709Z,99.80
2018-12-24T04:19:52.257Z,99.90
2018-12-24T04:22:21.742Z,99.80
2018-12-24T04:24:51.252Z,99.80
2018-12-24T04:27:20.784Z,99.70
2018-12-24T04:29:50.288Z,99.70
2018-12-24T04:32:19.763Z,99.70
2018-12-24T04:34:49.227Z,99.70
2018-12-24T04:37:18.742Z,99.70
2018-12-24T04:39:48.201Z,99.60
2018-12-24T04:42:17.637Z,99.60
2018-12-24T04:44:47.162Z,99.60
2018-12-24T04:47:16.616Z,99.60
2018-12-24T04:49:46.101Z,99.60
2018-12-24T04:52:15.843Z,99.50
2018-12-24T04:54:45.350Z,99.50
2018-12-24T04:57:14.832Z,99.50
2018-12-24T04:59:44.402Z,99.50
2018-12-24T05:02:13.828Z,99.40
2018-12-24T05:04:43.384Z,99.30
2018-12-24T05:07:12.834Z,99.30
2018-12-24T05:09:42.271Z,99.30
2018-12-24T05:12:11.864Z,99.20
2018-12-24T05:14:41.283Z,99.20
2018-12-24T05:17:10.798Z,99.20
2018-12-24T05:19:40.273Z,99.10
2018-12-24T05:22:09.705Z,99.20
2018-12-24T05:24:39.163Z,99.20
2018-12-24T05:27:08.621Z,99.20
2018-12-24T05:29:38.057Z,99.10
2018-12-24T05:32:07.503Z,99.10
2018-12-24T05:34:36.951Z,99.10
2018-12-24T05:37:06.424Z,99.00
2018-12-24T05:39:35.835Z,99.00
2018-12-24T05:42:05.335Z,99.00
2018-12-24T05:44:34.817Z,98.90
2018-12-24T05:47:04.339Z,99.00
2018-12-24T05:49:33.797Z,99.00
2018-12-24T05:52:03.301Z,98.90
2018-12-24T05:54:32.741Z,99.00
2018-12-24T05:57:02.168Z,98.90
2018-12-24T05:59:31.648Z,98.90
2018-12-24T06:02:01.102Z,98.90
2018-12-24T06:04:30.559Z,98.90
2018-12-24T06:07:00.032Z,98.90
2018-12-24T06:09:29.480Z,98.80
2018-12-24T06:11:58.919Z,98.90
2018-12-24T06:14:28.393Z,98.90
2018-12-24T06:16:57.837Z,98.90
2018-12-24T06:19:27.268Z,98.80
2018-12-24T06:21:56.759Z,98.80
2018-12-24T06:24:26.218Z,98.80
2018-12-24T06:26:55.680Z,98.80
2018-12-24T06:29:25.155Z,98.90
2018-12-24T06:31:54.593Z,98.90
2018-12-24T06:34:24.040Z,98.80
2018-12-24T06:36:53.643Z,98.80
2018-12-24T06:39:23.090Z,98.80
2018-12-24T06:41:52.517Z,98.80
2018-12-24T06:44:21.995Z,98.80
2018-12-24T06:46:51.425Z,98.80
2018-12-24T06:49:20.869Z,98.80
2018-12-24T06:51:50.367Z,98.70
2018-12-24T06:54:19.943Z,98.70
2018-12-24T06:56:49.365Z,98.80
2018-12-24T06:59:18.978Z,98.70
2018-12-24T07:01:48.432Z,98.70
2018-12-24T07:04:18.044Z,98.70
2018-12-24T07:06:47.506Z,98.60
2018-12-24T07:09:17.028Z,98.70
2018-12-24T07:11:46.490Z,98.70
2018-12-24T07:14:15.999Z,98.70
2018-12-24T07:16:45.682Z,99.00
2018-12-24T07:19:15.198Z,98.60
2018-12-24T07:21:44.700Z,98.70
2018-12-24T07:24:14.197Z,98.70
2018-12-24T07:26:43.794Z,98.70
2018-12-24T07:29:13.249Z,98.70
2018-12-24T07:31:42.846Z,98.70
2018-12-24T07:34:12.302Z,98.70
2018-12-24T07:36:41.813Z,98.70
2018-12-24T07:39:11.293Z,98.70
2018-12-24T07:41:40.841Z,98.50
2018-12-24T07:44:10.257Z,98.70
2018-12-24T07:46:40.933Z,98.70
2018-12-24T07:49:10.587Z,98.70
2018-12-24T07:51:40.085Z,98.70
2018-12-24T07:54:09.549Z,98.70
2018-12-24T07:56:39.075Z,98.70
2018-12-24T07:59:08.522Z,98.70
2018-12-24T08:01:38.036Z,98.60
2018-12-24T08:04:07.614Z,98.70
2018-12-24T08:06:37.072Z,98.70
2018-12-24T08:09:08.369Z,98.70
2018-12-24T08:11:37.829Z,98.70
2018-12-24T08:14:07.272Z,98.70
2018-12-24T08:16:36.778Z,98.70
2018-12-24T08:19:06.294Z,98.60
2018-12-24T08:21:35.801Z,98.70
2018-12-24T08:24:05.321Z,98.70
2018-12-24T08:26:34.783Z,98.70
2018-12-24T08:29:04.241Z,98.70
2018-12-24T08:31:33.734Z,98.70
2018-12-24T08:34:03.166Z,98.60
2018-12-24T08:36:32.619Z,98.60
2018-12-24T08:39:02.107Z,98.50
2018-12-24T08:41:31.574Z,98.50
2018-12-24T08:44:01.023Z,98.40
2018-12-24T08:46:30.499Z,98.50
2018-12-24T08:48:59.964Z,98.50
2018-12-24T08:51:29.412Z,98.80
2018-12-24T08:53:58.968Z,98.50
2018-12-24T08:56:29.304Z,98.50
2018-12-24T08:58:58.900Z,98.50
2018-12-24T09:01:28.354Z,98.50
2018-12-24T09:03:57.758Z,98.40
2018-12-24T09:06:27.230Z,98.40
2018-12-24T09:08:56.670Z,98.40
2018-12-24T09:11:26.106Z,98.30
2018-12-24T09:13:55.598Z,98.00
2018-12-24T09:16:25.081Z,98.20
2018-12-24T09:18:54.503Z,98.10
2018-12-24T09:21:23.960Z,97.90
2018-12-24T09:23:53.410Z,97.80
2018-12-24T09:26:22.862Z,97.30
2018-12-24T09:28:52.375Z,97.00
2018-12-24T09:31:21.831Z,97.10
2018-12-24T09:33:51.281Z,96.80
2018-12-24T09:36:20.762Z,96.70
2018-12-24T09:38:50.219Z,96.70
2018-12-24T09:41:19.751Z,96.60
2018-12-24T09:43:49.229Z,96.70
2018-12-24T09:46:18.679Z,96.50
2018-12-24T09:48:48.114Z,96.70
2018-12-24T09:51:17.589Z,96.60
2018-12-24T09:53:47.039Z,96.50
2018-12-24T09:56:16.494Z,96.50
2018-12-24T09:58:46.104Z,96.50
2018-12-24T10:01:15.563Z,96.40
2018-12-24T10:03:45.186Z,96.40
2018-12-24T10:06:14.638Z,96.40
2018-12-24T10:08:44.169Z,96.40
2018-12-24T10:11:13.676Z,96.40
2018-12-24T10:13:43.212Z,96.30
2018-12-24T10:16:12.664Z,96.00
2018-12-24T10:18:42.144Z,95.50
2018-12-24T10:21:11.597Z,96.00
2018-12-24T10:23:41.114Z,96.00
2018-12-24T10:26:10.582Z,96.00
2018-12-24T10:28:40.144Z,96.00
2018-12-24T10:31:09.571Z,96.00
2018-12-24T10:33:39.044Z,95.80
2018-12-24T10:36:08.531Z,95.40
2018-12-24T10:38:37.997Z,95.10
2018-12-24T10:41:07.565Z,95.00
2018-12-24T10:43:37.072Z,94.50
2018-12-24T10:46:06.462Z,94.60
2018-12-24T10:48:35.985Z,94.00
2018-12-24T10:51:05.420Z,94.30
2018-12-24T10:53:34.984Z,94.10
2018-12-24T10:56:04.483Z,94.30
2018-12-24T10:58:34.117Z,93.50
2018-12-24T11:01:03.538Z,93.30
2018-12-24T11:03:33.195Z,93.50
2018-12-24T11:06:02.679Z,92.70
2018-12-24T11:08:32.250Z,93.10
2018-12-24T11:11:01.792Z,93.30
2018-12-24T11:13:31.279Z,93.00
2018-12-24T11:16:00.814Z,93.10
2018-12-24T11:18:30.267Z,92.90
2018-12-24T11:20:59.822Z,92.60
2018-12-24T11:23:29.269Z,92.30
2018-12-24T11:25:58.730Z,91.10
2018-12-24T11:28:28.211Z,90.30
2018-12-24T11:30:57.682Z,89.70
2018-12-24T11:33:27.127Z,90.00
2018-12-24T11:35:56.623Z,89.10
2018-12-24T11:38:26.153Z,90.30
2018-12-24T11:40:55.608Z,90.30
2018-12-24T11:43:25.101Z,90.40
2018-12-24T11:45:56.172Z,90.40
2018-12-24T11:48:25.598Z,90.40
2018-12-24T11:50:55.064Z,90.30
2018-12-24T11:53:24.578Z,90.80
2018-12-24T11:55:54.026Z,90.60
2018-12-24T11:58:23.514Z,90.80
2018-12-24T12:00:53.198Z,89.60
2018-12-24T12:03:22.641Z,89.10
2018-12-24T12:05:53.945Z,89.40
2018-12-24T12:08:23.412Z,88.10
2018-12-24T12:10:53.051Z,86.00
2018-12-24T12:13:22.550Z,85.80
2018-12-24T12:15:52.033Z,80.20
2018-12-24T12:18:21.581Z,83.20
2018-12-24T12:20:52.611Z,84.40
2018-12-24T12:23:22.365Z,84.10
2018-12-24T12:25:51.830Z,84.20
2018-12-24T12:28:21.383Z,83.30
2018-12-24T12:30:50.819Z,84.80
2018-12-24T12:33:20.452Z,82.60
2018-12-24T12:35:49.931Z,81.80
2018-12-24T12:38:19.395Z,80.50
2018-12-24T12:40:48.882Z,81.20
2018-12-24T12:43:18.327Z,80.10
2018-12-24T12:45:51.397Z,81.40
2018-12-24T12:48:21.277Z,82.20
2018-12-24T12:50:50.245Z,82.50
2018-12-24T12:53:19.695Z,82.70
2018-12-24T12:55:49.143Z,82.40
2018-12-24T12:58:18.606Z,81.30
2018-12-24T13:00:48.072Z,81.70
2018-12-24T13:03:17.559Z,82.70
2018-12-24T13:05:47.056Z,83.50
2018-12-24T13:08:16.490Z,83.30
2018-12-24T13:10:45.945Z,82.90
2018-12-24T13:13:15.433Z,84.10
2018-12-24T13:15:44.914Z,84.50
2018-12-24T13:18:14.387Z,85.00
2018-12-24T13:20:43.931Z,83.80
2018-12-24T13:23:13.404Z,83.30
2018-12-24T13:25:42.915Z,83.00
2018-12-24T13:28:12.374Z,83.00
2018-12-24T13:30:41.821Z,81.90
2018-12-24T13:33:11.355Z,82.30
2018-12-24T13:35:40.808Z,83.40
2018-12-24T13:38:10.217Z,83.30
2018-12-24T13:40:39.629Z,84.50
2018-12-24T13:43:09.061Z,84.40
2018-12-24T13:45:38.552Z,85.00
2018-12-24T13:48:08.054Z,85.00
2018-12-24T13:50:37.478Z,83.80
2018-12-24T13:53:06.964Z,83.00
2018-12-24T13:55:36.439Z,81.60
2018-12-24T13:58:05.908Z,83.00
2018-12-24T14:00:35.375Z,82.70
2018-12-24T14:03:04.824Z,82.70
2018-12-24T14:05:34.358Z,82.50
2018-12-24T14:08:03.866Z,82.70
2018-12-24T14:10:33.287Z,83.30
2018-12-24T14:13:02.750Z,83.40
2018-12-24T14:15:32.243Z,84.10
2018-12-24T14:18:01.695Z,84.30
2018-12-24T14:20:32.807Z,83.40
2018-12-24T14:23:02.293Z,84.20
2018-12-24T14:25:31.768Z,83.90
2018-12-24T14:28:02.791Z,84.00
2018-12-24T14:30:32.294Z,84.20
2018-12-24T14:33:01.745Z,84.90
2018-12-24T14:35:31.252Z,85.20
2018-12-24T14:38:00.733Z,85.40
2018-12-24T14:40:30.193Z,85.20
2018-12-24T14:42:59.823Z,85.20
2018-12-24T14:45:29.293Z,85.60
2018-12-24T14:48:00.533Z,86.00
2018-12-24T14:50:30.030Z,86.10
2018-12-24T14:52:59.721Z,86.20
2018-12-24T14:55:31.911Z,86.10
2018-12-24T14:58:01.383Z,86.50
2018-12-24T15:00:30.833Z,86.80
2018-12-24T15:03:03.263Z,86.80
2018-12-24T15:05:32.743Z,87.20
2018-12-24T15:08:05.188Z,87.20
2018-12-24T15:10:36.246Z,87.40
2018-12-24T15:13:05.734Z,87.80
2018-12-24T15:15:35.233Z,87.80
2018-12-24T15:18:04.861Z,88.00
2018-12-24T15:20:34.511Z,88.20
2018-12-24T15:23:03.977Z,88.30
2018-12-24T15:25:33.459Z,88.60
2018-12-24T15:28:02.933Z,88.80
2018-12-24T15:30:33.912Z,89.10
2018-12-24T15:33:03.396Z,89.20
2018-12-24T15:35:35.593Z,89.50
2018-12-24T15:38:06.501Z,89.70
2018-12-24T15:40:35.947Z,90.00
2018-12-24T15:43:05.419Z,90.00
2018-12-24T15:45:34.941Z,90.20
2018-12-24T15:48:04.462Z,90.40
2018-12-24T15:50:33.972Z,90.40
2018-12-24T15:53:03.453Z,90.50
2018-12-24T15:55:32.964Z,90.60
2018-12-24T15:58:04.031Z,90.80
2018-12-24T16:00:33.538Z,91.00
2018-12-24T16:03:02.986Z,91.20
2018-12-24T16:05:32.440Z,91.30
2018-12-24T16:08:04.930Z,91.40
2018-12-24T16:10:34.397Z,91.50
2018-12-24T16:13:05.371Z,91.60
2018-12-24T16:15:34.825Z,91.80
2018-12-24T16:18:07.007Z,91.90
2018-12-24T16:20:36.505Z,92.10
2018-12-24T16:23:05.928Z,92.00
2018-12-24T16:25:35.363Z,92.40
2018-12-24T16:28:04.852Z,92.60
2018-12-24T16:30:34.312Z,92.80
2018-12-24T16:33:06.789Z,92.90
2018-12-24T16:35:36.212Z,93.00
2018-12-24T16:38:05.661Z,93.20
2018-12-24T16:40:35.226Z,93.30
2018-12-24T16:43:04.680Z,93.30
2018-12-24T16:45:34.130Z,93.30
2018-12-24T16:48:03.716Z,93.40
2018-12-24T16:50:33.187Z,93.40
2018-12-24T16:53:02.793Z,93.50
2018-12-24T16:55:32.251Z,93.60
2018-12-24T16:58:01.712Z,93.60
2018-12-24T17:00:31.145Z,93.60
2018-12-24T17:03:00.617Z,93.70
2018-12-24T17:05:30.090Z,93.90
2018-12-24T17:07:59.536Z,93.90
2018-12-24T17:10:29.021Z,94.00
2018-12-24T17:12:58.489Z,94.10
2018-12-24T17:15:27.993Z,94.20
2018-12-24T17:17:57.478Z,94.30
2018-12-24T17:20:27.006Z,94.40
2018-12-24T17:22:56.449Z,94.60
2018-12-24T17:25:25.923Z,94.60
2018-12-24T17:27:55.412Z,94.70
2018-12-24T17:30:24.963Z,94.70
2018-12-24T17:32:54.396Z,94.70
2018-12-24T17:35:23.900Z,94.60
2018-12-24T17:37:53.366Z,94.60
2018-12-24T17:40:24.374Z,94.70
2018-12-24T17:42:53.844Z,94.80
2018-12-24T17:45:23.292Z,94.90
2018-12-24T17:47:52.758Z,95.00
2018-12-24T17:50:22.340Z,95.10
2018-12-24T17:52:51.800Z,95.10
2018-12-24T17:55:21.252Z,95.20
2018-12-24T17:57:50.719Z,95.30
2018-12-24T18:00:20.184Z,95.30
2018-12-24T18:02:49.637Z,95.30
2018-12-24T18:05:19.198Z,95.30
2018-12-24T18:07:48.722Z,95.30
2018-12-24T18:10:18.287Z,95.20
2018-12-24T18:12:47.733Z,95.10
2018-12-24T18:15:17.240Z,95.10
2018-12-24T18:17:46.727Z,95.20
2018-12-24T18:20:16.243Z,95.20
2018-12-24T18:22:45.674Z,95.20
2018-12-24T18:25:15.150Z,95.30
2018-12-24T18:27:44.602Z,95.30
2018-12-24T18:30:14.246Z,95.30
2018-12-24T18:32:43.690Z,95.30
2018-12-24T18:35:13.174Z,95.30
2018-12-24T18:37:42.634Z,95.30
2018-12-24T18:40:12.170Z,95.40
2018-12-24T18:42:41.628Z,95.50
2018-12-24T18:45:11.107Z,95.50
2018-12-24T18:47:40.557Z,95.50
2018-12-24T18:50:10.003Z,95.50
2018-12-24T18:52:39.541Z,95.60
2018-12-24T18:55:08.976Z,95.70
2018-12-24T18:57:38.520Z,95.90
2018-12-24T19:00:10.778Z,96.00
2018-12-24T19:02:40.235Z,96.10
2018-12-24T19:05:10.158Z,96.10
2018-12-24T19:07:39.640Z,96.20
2018-12-24T19:10:09.482Z,96.20
2018-12-24T19:12:39.006Z,96.20
2018-12-24T19:15:08.598Z,96.30
2018-12-24T19:17:41.622Z,96.40
2018-12-24T19:20:09.847Z,96.40
2018-12-24T19:22:41.035Z,96.40
2018-12-24T19:25:10.524Z,96.40
2018-12-24T19:27:40.044Z,96.40
2018-12-24T19:30:11.691Z,96.40
2018-12-24T19:32:41.204Z,96.40
2018-12-24T19:35:10.654Z,96.30
2018-12-24T19:37:40.141Z,96.30
2018-12-24T19:40:09.672Z,96.40
2018-12-24T19:42:39.121Z,96.40
2018-12-24T19:45:08.608Z,96.50
2018-12-24T19:47:38.129Z,96.50
2018-12-24T19:50:07.742Z,96.50
2018-12-24T19:52:37.231Z,96.40
2018-12-24T19:55:06.749Z,96.40
2018-12-24T19:57:36.244Z,96.30
2018-12-24T20:00:08.421Z,96.30
2018-12-24T20:02:37.848Z,96.40
2018-12-24T20:05:07.396Z,96.40
2018-12-24T20:07:36.854Z,96.40
2018-12-24T20:10:08.094Z,96.40
2018-12-24T20:12:37.599Z,96.50
2018-12-24T20:15:07.222Z,96.60
2018-12-24T20:17:36.668Z,96.70
2018-12-24T20:20:06.872Z,96.70
2018-12-24T20:22:36.330Z,96.70
2018-12-24T20:25:05.930Z,96.70
2018-12-24T20:27:35.401Z,96.80
2018-12-24T20:30:05.987Z,96.90
2018-12-24T20:32:35.499Z,97.00
2018-12-24T20:35:05.507Z,97.10
2018-12-24T20:37:35.069Z,97.10
2018-12-24T20:40:04.670Z,97.10
2018-12-24T20:42:34.212Z,97.20
2018-12-24T20:45:03.778Z,97.30
2018-12-24T20:47:33.259Z,97.40
2018-12-24T20:50:02.723Z,97.40
2018-12-24T20:52:32.292Z,97.40
2018-12-24T20:55:01.767Z,97.50
2018-12-24T20:57:31.211Z,97.60
2018-12-24T21:00:00.768Z,97.50
2018-12-24T21:02:30.253Z,97.50
2018-12-24T21:04:59.736Z,97.50
2018-12-24T21:07:29.235Z,97.50
2018-12-24T21:09:58.722Z,97.40
2018-12-24T21:12:28.264Z,97.40
2018-12-24T21:14:57.770Z,97.40
2018-12-24T21:17:27.274Z,97.40
2018-12-24T21:19:56.722Z,97.40
2018-12-24T21:22:26.234Z,97.40
2018-12-24T21:24:55.699Z,97.70
2018-12-24T21:27:25.181Z,97.30
2018-12-24T21:29:54.656Z,97.30
2018-12-24T21:32:24.195Z,97.40
2018-12-24T21:34:53.706Z,97.40
2018-12-24T21:37:23.159Z,97.40
2018-12-24T21:39:52.651Z,97.40
2018-12-24T21:42:23.113Z,97.50
2018-12-24T21:44:52.608Z,97.50
2018-12-24T21:47:22.073Z,97.50
2018-12-24T21:49:51.532Z,97.60
2018-12-24T21:52:21.030Z,97.50
2018-12-24T21:54:50.493Z,97.50
2018-12-24T21:57:19.944Z,97.50
2018-12-24T21:59:49.474Z,97.50
2018-12-24T22:02:18.972Z,97.40
2018-12-24T22:04:48.416Z,97.40
2018-12-24T22:07:17.966Z,97.40
2018-12-24T22:09:47.459Z,97.30
2018-12-24T22:12:16.896Z,97.30
2018-12-24T22:14:46.367Z,97.20
2018-12-24T22:17:15.807Z,97.20
2018-12-24T22:19:45.302Z,97.10
2018-12-24T22:22:14.794Z,97.20
2018-12-24T22:24:44.276Z,97.20
2018-12-24T22:27:13.887Z,97.20
2018-12-24T22:29:43.327Z,97.20
2018-12-24T22:32:12.784Z,97.20
2018-12-24T22:34:42.429Z,97.20
2018-12-24T22:37:11.901Z,97.20
2018-12-24T22:39:41.403Z,97.20
2018-12-24T22:42:10.906Z,97.20
2018-12-24T22:44:40.397Z,97.20
2018-12-24T22:47:09.834Z,97.20
2018-12-24T22:49:39.509Z,97.20
2018-12-24T22:52:08.992Z,97.20
2018-12-24T22:54:38.393Z,97.20
2018-12-24T22:57:07.834Z,97.20
2018-12-24T22:59:37.281Z,97.20
2018-12-24T23:02:06.797Z,97.20
2018-12-24T23:04:36.303Z,97.20
2018-12-24T23:07:05.855Z,97.20
2018-12-24T23:09:35.302Z,97.20
2018-12-24T23:12:04.831Z,97.30
2018-12-24T23:14:34.362Z,97.20
2018-12-24T23:17:03.820Z,97.20
2018-12-24T23:19:33.274Z,97.20
2018-12-24T23:22:02.720Z,97.20
2018-12-24T23:24:32.235Z,97.10
2018-12-24T23:27:01.670Z,97.20
2018-12-24T23:29:31.140Z,97.10
2018-12-24T23:32:00.636Z,97.10
2018-12-24T23:34:30.201Z,97.10
2018-12-24T23:36:59.741Z,97.10
2018-12-24T23:39:29.204Z,97.10
2018-12-24T23:41:58.673Z,97.00
2018-12-24T23:44:28.164Z,97.10
2018-12-24T23:46:57.678Z,97.10
2018-12-24T23:49:27.134Z,97.10
2018-12-24T23:51:56.601Z,97.10
2018-12-24T23:54:26.046Z,97.10
2018-12-24T23:56:55.508Z,97.10
2018-12-24T23:59:25.003Z,97.10
